Página principal
METAR-TAF:

METAR-TAF

Aeroportos :

Aeroporto de Vigo

Vigo, Espanha

latitude: 42-13N, longitude: 008-38W, altura: 264 m

Observação actual do tempo

O boletim foi feito há 30 minutos, às 18:30 UTC
Vento 4 kt de oeste
Temperatura 10°C
Humidade 87%
Pressão 1029 hPa
Visibilidade 10 km ou mais
sem nuvens abaixo de 1500 metros e sem cumulonimbus

METAR: LEVX 171830Z 27004KT CAVOK 10/08 Q1029 NOSIG

Hora: 20:00 (19:00 UTC)

Previsão

O boletim foi feito há 2 horas e 0 minutos, às 17:00 UTC
Previsão válida de 17 às 18 UTC a 18 às 18 UTC
Vento 4 kt de su-sudeste
Visibilidade 10 km ou mais
sem nuvens abaixo de 1500 metros e sem cumulonimbus

TAF: LEVX 171700Z 1718/1818 16004KT CAVOK TX14/1814Z TN04/1806Z

Observações e previsões do tempo de mais de 4000 aeroportos (mensagens METAR e TAF).

As estações disponíveis são os pontos amarelos e vermelhos sobre o mapa.

Mova o rato sobre o mapa para ver o nome da estação.

Depois clique no ponto para visualizar as observações e previsões meteorológicas.

Para alterar o mapa : clique nos botões verdes com uma cruz preta para aumentar o zoom; no botão verde com uma pitada de zoom; ou nas setas verdes para mapas adjacentes.


METAR-TAF: